Lloyd Harbor, New York
Current Conditions -  °F | °C
As of 4:53 PM on Friday 24 Oct 2014 (Local Time) from KFRG Reporting Station
Overcast Overcast  
Wind Chill: 14°   Ceiling: 4300
Heat Index: 14°   Visibility: 10mi
Dew Point:   Wind: 9mph
Humidity: 62%   Direction: 10°N
Pressure: 29.78"   Gusts: NA
Location:  40.8966°N, 73.4362°W
Report Text: KFRG 242053Z 01008KT 10SM OVC043 14/07 A2978 RMK AO2 SLP083 T01440072 51002
Loading
Personal Weather Stations






























Interactive Weather Map
Tropical Storm Tracking
New forecast layout! Learn more

10-Day Weather Forecast

Advertisements
Track Severe Weather on mobile